createdAt,value
2019-05-29T00:00:42.967Z,0.00
2019-05-29T00:01:42.967Z,0.00
2019-05-29T00:02:42.987Z,0.00
2019-05-29T00:03:42.956Z,0.00
2019-05-29T00:04:42.955Z,0.00
2019-05-29T00:05:42.955Z,0.00
2019-05-29T00:06:42.967Z,0.00
2019-05-29T00:07:42.957Z,0.00
2019-05-29T00:08:42.979Z,0.00
2019-05-29T00:09:42.948Z,0.00
2019-05-29T00:10:42.951Z,0.00
2019-05-29T00:11:42.948Z,0.00
2019-05-29T00:12:42.945Z,0.00
2019-05-29T00:13:42.971Z,0.00
2019-05-29T00:14:42.945Z,0.00
2019-05-29T00:15:42.941Z,0.00
2019-05-29T00:16:42.941Z,0.00
2019-05-29T00:17:42.937Z,0.00
2019-05-29T00:18:42.969Z,0.00
2019-05-29T00:19:42.929Z,0.00
2019-05-29T00:20:42.935Z,0.00
2019-05-29T00:21:42.935Z,0.00
2019-05-29T00:22:42.930Z,0.00
2019-05-29T00:23:42.954Z,0.00
2019-05-29T00:24:42.928Z,0.00
2019-05-29T00:25:42.925Z,0.00
2019-05-29T00:26:42.928Z,0.00
2019-05-29T00:27:42.927Z,0.00
2019-05-29T00:28:42.948Z,0.00
2019-05-29T00:29:42.922Z,0.00
2019-05-29T00:30:42.925Z,0.00
2019-05-29T00:31:42.919Z,0.00
2019-05-29T00:32:42.916Z,0.00
2019-05-29T00:33:42.949Z,0.00
2019-05-29T00:34:42.907Z,0.00
2019-05-29T00:35:42.907Z,0.00
2019-05-29T00:36:42.915Z,0.00
2019-05-29T00:37:42.908Z,0.00
2019-05-29T00:38:42.936Z,0.00
2019-05-29T00:39:42.921Z,0.00
2019-05-29T00:40:42.900Z,0.00
2019-05-29T00:41:42.903Z,0.00
2019-05-29T00:42:42.905Z,0.00
2019-05-29T00:43:42.936Z,0.00
2019-05-29T00:44:42.897Z,0.00
2019-05-29T00:45:42.903Z,0.00
2019-05-29T00:46:42.897Z,0.00
2019-05-29T00:47:42.893Z,0.00
2019-05-29T00:48:42.923Z,0.00
2019-05-29T00:49:42.888Z,0.00
2019-05-29T01:52:28.015Z,0.00
2019-05-29T01:52:48.786Z,0.00
2019-05-29T01:53:48.815Z,0.00
2019-05-29T01:54:48.783Z,0.00
2019-05-29T01:55:48.779Z,0.00
2019-05-29T01:56:48.808Z,0.00
2019-05-29T01:57:48.780Z,0.00
2019-05-29T01:58:48.780Z,0.00
2019-05-29T01:59:48.808Z,0.00
2019-05-29T02:00:48.773Z,0.00
2019-05-29T02:01:48.771Z,0.00
2019-05-29T02:02:48.776Z,0.00
2019-05-29T02:03:48.799Z,0.00
2019-05-29T02:04:48.765Z,0.00
2019-05-29T02:05:48.764Z,0.00
2019-05-29T02:06:48.764Z,0.00
2019-05-29T02:07:48.761Z,0.00
2019-05-29T02:08:48.799Z,0.00
2019-05-29T02:09:48.761Z,0.00
2019-05-29T02:10:48.755Z,0.00
2019-05-29T02:11:48.854Z,0.00
2019-05-29T02:12:48.749Z,0.00
2019-05-29T02:13:48.773Z,0.00
2019-05-29T02:14:48.753Z,0.00
2019-05-29T02:15:48.746Z,0.00
2019-05-29T02:16:48.740Z,0.00
2019-05-29T02:17:48.742Z,0.00
2019-05-29T02:18:48.778Z,0.00
2019-05-29T02:19:48.739Z,0.00
2019-05-29T02:20:48.735Z,0.00
2019-05-29T02:21:48.734Z,0.00
2019-05-29T02:22:48.758Z,0.00
2019-05-29T02:23:48.734Z,0.00
2019-05-29T02:24:48.751Z,0.00
2019-05-29T02:25:48.733Z,0.00
2019-05-29T02:26:48.727Z,0.00
2019-05-29T02:27:48.730Z,0.00
2019-05-29T02:28:48.743Z,0.00
2019-05-29T02:29:48.722Z,0.00
2019-05-29T02:30:48.716Z,0.00
2019-05-29T02:31:48.793Z,0.00
2019-05-29T02:32:48.715Z,0.00
2019-05-29T02:33:48.737Z,0.00
2019-05-29T02:34:48.707Z,0.00
2019-05-29T02:35:48.705Z,0.00
2019-05-29T02:36:48.705Z,0.00
2019-05-29T02:37:48.701Z,0.00
2019-05-29T02:38:48.728Z,0.00
2019-05-29T02:39:48.698Z,0.00
2019-05-29T02:40:48.694Z,0.00
2019-05-29T02:41:48.694Z,0.00
2019-05-29T02:42:48.717Z,0.00
2019-05-29T02:43:48.682Z,0.00
2019-05-29T02:44:48.683Z,0.00
2019-05-29T02:45:54.440Z,0.00
2019-05-29T02:46:48.682Z,0.00
2019-05-29T02:47:48.709Z,0.00
2019-05-29T02:48:48.673Z,0.00
2019-05-29T02:49:48.687Z,0.00
2019-05-29T02:50:48.669Z,0.00
2019-05-29T02:51:48.723Z,0.00
2019-05-29T02:52:48.697Z,0.00
2019-05-29T02:53:48.663Z,0.00
2019-05-29T02:54:48.663Z,0.00
2019-05-29T02:55:48.672Z,0.00
2019-05-29T02:56:48.663Z,0.00
2019-05-29T02:57:48.693Z,0.00
2019-05-29T02:58:48.661Z,0.00
2019-05-29T02:59:48.653Z,0.00
2019-05-29T03:00:48.648Z,0.00
2019-05-29T03:01:48.644Z,0.00
2019-05-29T03:02:48.697Z,0.00
2019-05-29T03:03:48.647Z,0.00
2019-05-29T03:04:48.643Z,0.00
2019-05-29T03:05:48.637Z,0.00
2019-05-29T03:06:48.639Z,0.00
2019-05-29T03:07:48.658Z,0.00
2019-05-29T03:08:48.631Z,0.00
2019-05-29T03:09:48.623Z,0.00
2019-05-29T03:10:48.622Z,0.00
2019-05-29T03:11:48.623Z,0.00
2019-05-29T03:12:48.643Z,0.00
2019-05-29T03:13:48.625Z,0.00
2019-05-29T03:14:48.616Z,0.00
2019-05-29T03:16:05.753Z,0.00
2019-05-29T03:16:48.610Z,5.63
2019-05-29T03:17:48.642Z,5.63
2019-05-29T03:18:48.608Z,5.63
2019-05-29T03:19:48.602Z,5.63
2019-05-29T03:20:48.598Z,5.63
2019-05-29T03:21:48.601Z,5.63
2019-05-29T03:22:48.600Z,5.63
2019-05-29T03:23:48.623Z,5.63
2019-05-29T03:24:48.604Z,5.63
2019-05-29T03:25:48.583Z,11.25
2019-05-29T03:26:48.594Z,11.25
2019-05-29T03:27:48.582Z,11.25
2019-05-29T03:28:48.608Z,11.25
2019-05-29T03:29:48.574Z,11.25
2019-05-29T03:30:48.583Z,11.25
2019-05-29T03:31:49.013Z,11.25
2019-05-29T03:32:49.074Z,16.88
2019-05-29T03:33:50.648Z,16.88
2019-05-29T03:34:48.636Z,16.88
2019-05-29T03:35:48.914Z,16.88
2019-05-29T03:36:49.217Z,16.88
2019-05-29T03:37:48.562Z,16.88
2019-05-29T03:38:48.590Z,16.88
2019-05-29T03:39:48.569Z,22.50
2019-05-29T03:40:48.559Z,22.50
2019-05-29T03:41:48.551Z,22.50
2019-05-29T03:42:48.549Z,22.50
2019-05-29T03:43:48.577Z,22.50
2019-05-29T03:44:48.542Z,22.50
2019-05-29T03:45:48.541Z,28.13
2019-05-29T03:46:48.540Z,28.13
2019-05-29T03:47:48.539Z,28.13
2019-05-29T03:48:48.562Z,28.13
2019-05-29T03:49:48.535Z,28.13
2019-05-29T03:50:48.537Z,28.13
2019-05-29T03:51:48.537Z,28.13
2019-05-29T03:52:48.523Z,33.75
2019-05-29T03:53:48.567Z,33.75
2019-05-29T03:54:48.520Z,33.75
2019-05-29T03:55:48.519Z,39.38
2019-05-29T03:56:48.511Z,33.75
2019-05-29T03:57:48.514Z,39.38
2019-05-29T03:58:48.547Z,39.38
2019-05-29T03:59:48.510Z,39.38
2019-05-29T04:00:49.091Z,39.38
2019-05-29T04:01:48.512Z,39.38
2019-05-29T04:02:48.502Z,39.38
2019-05-29T04:03:48.528Z,45.00
2019-05-29T04:04:48.495Z,45.00
2019-05-29T04:05:48.501Z,45.00
2019-05-29T04:06:48.489Z,39.38
2019-05-29T04:07:48.495Z,39.38
2019-05-29T04:08:48.524Z,39.38
2019-05-29T04:09:48.490Z,39.38
2019-05-29T04:10:48.487Z,39.38
2019-05-29T04:11:48.485Z,39.38
2019-05-29T04:12:48.495Z,33.75
2019-05-29T04:13:48.506Z,33.75
2019-05-29T04:14:48.487Z,33.75
2019-05-29T04:15:48.472Z,33.75
2019-05-29T04:16:58.957Z,33.75
2019-05-29T04:17:48.477Z,39.38
2019-05-29T04:18:48.504Z,39.38
2019-05-29T04:19:48.466Z,39.38
2019-05-29T04:20:48.461Z,39.38
2019-05-29T04:21:48.466Z,45.00
2019-05-29T04:22:48.461Z,50.63
2019-05-29T04:23:48.483Z,45.00
2019-05-29T04:24:48.451Z,45.00
2019-05-29T04:25:48.458Z,50.63
2019-05-29T04:26:48.450Z,56.25
2019-05-29T04:27:48.450Z,50.63
2019-05-29T04:28:48.470Z,50.63
2019-05-29T04:29:48.445Z,50.63
2019-05-29T04:30:48.440Z,50.63
2019-05-29T04:31:48.442Z,56.25
2019-05-29T04:32:48.434Z,50.63
2019-05-29T04:33:48.466Z,56.25
2019-05-29T04:34:48.441Z,56.25
2019-05-29T04:35:48.432Z,50.63
2019-05-29T04:36:48.429Z,50.63
2019-05-29T04:37:48.430Z,56.25
2019-05-29T04:38:48.427Z,56.25
2019-05-29T04:39:48.446Z,56.25
2019-05-29T04:40:48.411Z,56.25
2019-05-29T04:41:48.416Z,56.25
2019-05-29T04:42:48.415Z,56.25
2019-05-29T04:43:48.412Z,61.88
2019-05-29T04:44:48.439Z,67.50
2019-05-29T04:45:48.408Z,67.50
2019-05-29T04:46:48.414Z,78.75
2019-05-29T04:47:48.404Z,84.38
2019-05-29T04:48:48.400Z,84.38
2019-05-29T04:49:48.431Z,73.13
2019-05-29T04:50:48.400Z,73.13
2019-05-29T04:51:48.395Z,73.13
2019-05-29T04:52:48.389Z,67.50
2019-05-29T04:53:48.385Z,73.13
2019-05-29T04:54:48.414Z,84.38
2019-05-29T04:55:48.385Z,84.38
2019-05-29T04:56:48.378Z,84.38
2019-05-29T04:57:50.783Z,78.75
2019-05-29T04:58:48.376Z,78.75
2019-05-29T04:59:48.413Z,78.75
2019-05-29T05:00:58.668Z,78.75
2019-05-29T05:01:48.382Z,84.38
2019-05-29T05:02:48.371Z,90.00
2019-05-29T05:03:48.366Z,101.25
2019-05-29T05:04:48.391Z,112.50
2019-05-29T05:05:48.363Z,112.50
2019-05-29T05:06:48.362Z,123.75
2019-05-29T05:07:48.359Z,135.00
2019-05-29T05:08:48.355Z,140.63
2019-05-29T05:09:48.386Z,146.25
2019-05-29T05:10:48.355Z,151.88
2019-05-29T05:11:48.383Z,163.13
2019-05-29T05:12:48.384Z,168.75
2019-05-29T05:13:48.343Z,174.38
2019-05-29T05:14:48.367Z,174.38
2019-05-29T05:15:48.342Z,180.00
2019-05-29T05:16:48.335Z,185.63
2019-05-29T05:17:48.339Z,185.63
2019-05-29T05:18:48.338Z,185.63
2019-05-29T05:19:48.361Z,185.63
2019-05-29T05:20:48.335Z,185.63
2019-05-29T05:21:48.337Z,185.63
2019-05-29T05:22:48.330Z,185.63
2019-05-29T05:23:48.335Z,180.00
2019-05-29T05:24:48.352Z,180.00
2019-05-29T05:25:48.312Z,185.63
2019-05-29T05:26:48.315Z,191.25
2019-05-29T05:27:48.318Z,208.13
2019-05-29T05:28:48.346Z,219.38
2019-05-29T05:29:48.348Z,236.25
2019-05-29T05:30:48.340Z,241.88
2019-05-29T05:31:48.305Z,241.88
2019-05-29T05:32:48.306Z,241.88
2019-05-29T05:33:48.311Z,247.50
2019-05-29T05:34:48.294Z,253.13
2019-05-29T05:35:48.343Z,264.38
2019-05-29T05:36:48.296Z,281.25
2019-05-29T05:37:48.290Z,303.75
2019-05-29T05:38:48.293Z,331.88
2019-05-29T05:39:48.304Z,331.88
2019-05-29T05:40:48.314Z,337.50
2019-05-29T05:41:48.284Z,348.75
2019-05-29T05:42:48.282Z,348.75
2019-05-29T05:43:48.283Z,343.13
2019-05-29T05:44:48.280Z,331.88
2019-05-29T05:45:48.313Z,337.50
2019-05-29T05:46:48.272Z,348.75
2019-05-29T05:47:56.863Z,371.25
2019-05-29T05:48:48.276Z,365.63
2019-05-29T05:49:48.273Z,348.75
2019-05-29T05:50:48.295Z,343.13
2019-05-29T05:51:48.375Z,326.25
2019-05-29T05:52:48.262Z,315.00
2019-05-29T05:53:48.270Z,286.88
2019-05-29T05:54:48.254Z,264.38
2019-05-29T05:55:48.298Z,258.75
2019-05-29T05:56:48.256Z,264.38
2019-05-29T05:57:48.260Z,270.00
2019-05-29T05:58:48.256Z,270.00
2019-05-29T05:59:48.251Z,275.63
2019-05-29T06:00:48.280Z,298.13
2019-05-29T06:01:48.248Z,326.25
2019-05-29T06:02:51.982Z,348.75
2019-05-29T06:03:48.246Z,348.75
2019-05-29T06:04:48.299Z,331.88
2019-05-29T06:05:48.276Z,275.63
2019-05-29T06:06:48.244Z,213.75
2019-05-29T06:07:48.268Z,163.13
2019-05-29T06:08:48.234Z,151.88
2019-05-29T06:09:48.241Z,146.25
2019-05-29T06:10:51.108Z,118.13
2019-05-29T06:11:48.239Z,135.00
2019-05-29T06:12:48.233Z,146.25
2019-05-29T06:13:48.229Z,168.75
2019-05-29T06:14:48.227Z,168.75
2019-05-29T06:15:48.261Z,174.38
2019-05-29T06:16:48.228Z,191.25
2019-05-29T06:18:10.253Z,196.88
2019-05-29T06:18:48.224Z,202.50
2019-05-29T06:19:48.231Z,202.50
2019-05-29T06:20:48.242Z,213.75
2019-05-29T06:21:48.210Z,213.75
2019-05-29T06:22:48.219Z,230.63
2019-05-29T06:23:48.214Z,247.50
2019-05-29T06:24:48.237Z,281.25
2019-05-29T06:25:48.237Z,331.88
2019-05-29T06:26:48.209Z,388.13
2019-05-29T06:27:48.202Z,365.63
2019-05-29T06:28:48.207Z,331.88
2019-05-29T06:29:48.199Z,371.25
2019-05-29T06:30:48.196Z,360.00
2019-05-29T06:31:48.396Z,337.50
2019-05-29T06:32:48.192Z,337.50
2019-05-29T06:33:48.197Z,298.13
2019-05-29T06:34:48.195Z,258.75
2019-05-29T06:35:48.187Z,270.00
2019-05-29T06:36:48.405Z,292.50
2019-05-29T06:37:48.180Z,337.50
2019-05-29T06:38:48.181Z,416.25
2019-05-29T06:39:48.182Z,517.50
2019-05-29T06:40:48.187Z,517.50
2019-05-29T06:41:48.208Z,545.63
2019-05-29T06:42:48.174Z,551.25
2019-05-29T06:43:48.175Z,489.38
2019-05-29T06:44:49.872Z,410.63
2019-05-29T06:45:48.165Z,354.38
2019-05-29T06:46:48.194Z,388.13
2019-05-29T06:47:48.161Z,421.88
2019-05-29T06:48:58.317Z,416.25
2019-05-29T06:49:48.164Z,478.13
2019-05-29T06:50:48.163Z,545.63
2019-05-29T06:51:48.179Z,596.25
2019-05-29T06:52:48.161Z,658.13
2019-05-29T06:53:48.384Z,686.25
2019-05-29T06:54:48.276Z,708.75
2019-05-29T06:55:54.288Z,725.63
2019-05-29T06:56:48.179Z,720.00
2019-05-29T06:57:48.387Z,658.13
2019-05-29T06:58:48.510Z,528.75
2019-05-29T06:59:48.944Z,478.13
2019-05-29T07:00:48.149Z,540.00
2019-05-29T07:01:48.163Z,545.63
2019-05-29T07:02:48.138Z,455.63
2019-05-29T07:03:48.303Z,393.75
2019-05-29T07:04:48.131Z,427.50
2019-05-29T07:05:51.259Z,405.00
2019-05-29T07:06:48.158Z,433.13
2019-05-29T07:07:48.583Z,461.25
2019-05-29T07:08:50.180Z,438.75
2019-05-29T07:09:48.457Z,444.38
2019-05-29T07:10:48.515Z,455.63
2019-05-29T07:11:48.156Z,450.00
2019-05-29T07:12:48.132Z,421.88
2019-05-29T07:13:50.298Z,399.38
2019-05-29T07:14:48.285Z,376.88
2019-05-29T07:15:48.116Z,399.38
2019-05-29T07:16:55.523Z,444.38
2019-05-29T07:17:48.125Z,495.00
2019-05-29T07:19:23.306Z,472.50
2019-05-29T07:19:59.055Z,455.63
2019-05-29T07:20:48.108Z,427.50
2019-05-29T07:21:48.143Z,433.13
2019-05-29T07:22:48.101Z,466.88
2019-05-29T07:23:48.837Z,466.88
2019-05-29T07:24:48.109Z,478.13
2019-05-29T07:25:48.103Z,483.75
2019-05-29T07:26:48.127Z,500.63
2019-05-29T07:27:48.097Z,523.13
2019-05-29T07:29:06.618Z,556.88
2019-05-29T07:29:48.100Z,630.00
2019-05-29T07:30:57.667Z,714.38
2019-05-29T07:31:48.122Z,658.13
2019-05-29T07:32:56.697Z,680.63
2019-05-29T07:33:48.090Z,753.75
2019-05-29T07:35:02.281Z,849.38
2019-05-29T07:35:48.082Z,894.38
2019-05-29T07:36:48.277Z,984.38
2019-05-29T07:37:48.191Z,1170.00
2019-05-29T07:39:02.325Z,1265.63
2019-05-29T07:39:48.085Z,1361.25
2019-05-29T07:40:49.840Z,1501.88
2019-05-29T07:41:48.107Z,1603.13
2019-05-29T07:42:55.137Z,1693.13
2019-05-29T07:43:48.183Z,1878.75
2019-05-29T07:44:48.214Z,1884.38
2019-05-29T07:45:48.268Z,1850.63
2019-05-29T07:46:48.843Z,2019.38
2019-05-29T07:47:48.553Z,2295.00
2019-05-29T07:48:50.079Z,2373.75
2019-05-29T07:49:49.031Z,2379.38
2019-05-29T07:50:48.470Z,2092.50
2019-05-29T07:51:48.839Z,2126.25
2019-05-29T07:52:49.192Z,2165.63
2019-05-29T07:53:48.768Z,2092.50
2019-05-29T07:54:48.205Z,2126.25
2019-05-29T07:55:48.984Z,2283.75
2019-05-29T07:56:48.661Z,2486.25
2019-05-29T07:57:48.976Z,2266.88
2019-05-29T07:59:01.036Z,2728.13
2019-05-29T07:59:48.845Z,2210.63
2019-05-29T08:01:09.690Z,2306.25
2019-05-29T08:01:49.182Z,1890.00
2019-05-29T08:02:49.392Z,1760.63
2019-05-29T08:03:49.510Z,1518.75
2019-05-29T08:04:49.707Z,1653.75
2019-05-29T08:05:51.518Z,1805.63
2019-05-29T08:06:52.677Z,1721.25
2019-05-29T08:07:49.575Z,2182.50
2019-05-29T08:08:49.426Z,2373.75
2019-05-29T08:09:48.098Z,2598.75
2019-05-29T08:10:48.101Z,3015.00
2019-05-29T08:11:48.105Z,2306.25
2019-05-29T08:12:53.155Z,2131.88
2019-05-29T08:13:48.106Z,1918.13
2019-05-29T08:14:48.106Z,2070.00
2019-05-29T08:16:00.958Z,2289.38
2019-05-29T08:16:48.178Z,2008.13
2019-05-29T08:17:48.271Z,2435.63
2019-05-29T08:18:49.685Z,2660.63
2019-05-29T08:20:05.394Z,2947.50
2019-05-29T08:20:48.195Z,1974.38
2019-05-29T08:21:48.502Z,2064.38
2019-05-29T08:22:48.551Z,1912.50
2019-05-29T08:23:48.571Z,1732.50
2019-05-29T08:24:49.370Z,1597.50
2019-05-29T08:25:48.135Z,1575.00
2019-05-29T08:26:48.920Z,1766.25
2019-05-29T08:27:48.905Z,2250.00
2019-05-29T08:28:48.953Z,2851.88
2019-05-29T08:29:48.813Z,2401.88
2019-05-29T08:30:52.509Z,3262.50
2019-05-29T08:31:48.964Z,1839.38
2019-05-29T08:32:49.210Z,3403.13
2019-05-29T08:33:48.967Z,1946.25
2019-05-29T08:34:49.083Z,2458.13
2019-05-29T08:35:55.688Z,2739.38
2019-05-29T08:37:00.841Z,2008.13
2019-05-29T08:37:49.159Z,1890.00
2019-05-29T08:38:49.079Z,1890.00
2019-05-29T08:39:49.455Z,1541.25
2019-05-29T08:40:49.426Z,1614.38
2019-05-29T08:42:20.661Z,1923.75
2019-05-29T08:42:49.312Z,3279.38
2019-05-29T08:43:48.424Z,4145.63
2019-05-29T08:44:48.195Z,2986.88
2019-05-29T08:45:48.205Z,1918.13
2019-05-29T08:47:06.349Z,1563.75
2019-05-29T08:47:48.209Z,1608.75
2019-05-29T08:48:48.289Z,1760.63
2019-05-29T08:49:51.048Z,2390.63
2019-05-29T08:50:48.222Z,1845.00
2019-05-29T08:51:48.225Z,1586.25
2019-05-29T08:52:48.229Z,1659.38
2019-05-29T08:53:48.766Z,2160.00
2019-05-29T08:54:48.241Z,3960.00
2019-05-29T08:55:48.690Z,4983.75
2019-05-29T08:56:48.414Z,5265.00
2019-05-29T08:57:48.460Z,2306.25
2019-05-29T08:58:48.456Z,2143.13
2019-05-29T08:59:48.441Z,2041.88
2019-05-29T09:00:51.978Z,2019.38
2019-05-29T09:01:50.450Z,2283.75
2019-05-29T09:02:49.283Z,1856.25
2019-05-29T09:03:48.875Z,1591.88
2019-05-29T09:04:49.804Z,1558.13
2019-05-29T09:06:06.099Z,1957.50
2019-05-29T09:06:49.190Z,3526.88
2019-05-29T09:07:49.787Z,3375.00
2019-05-29T09:08:49.909Z,1873.13
2019-05-29T09:09:49.112Z,1856.25
2019-05-29T09:10:49.400Z,1665.00
2019-05-29T09:11:50.142Z,1479.38
2019-05-29T09:12:57.075Z,1361.25
2019-05-29T09:13:48.361Z,1327.50
2019-05-29T09:14:48.396Z,1355.63
2019-05-29T09:15:48.354Z,1395.00
2019-05-29T09:16:48.337Z,1411.88
2019-05-29T09:17:48.345Z,1389.38
2019-05-29T09:18:48.390Z,1378.13
2019-05-29T09:19:48.398Z,1451.25
2019-05-29T09:21:01.185Z,1631.25
2019-05-29T09:21:48.400Z,1918.13
2019-05-29T09:22:48.368Z,2109.38
2019-05-29T09:23:48.399Z,1850.63
2019-05-29T09:24:48.377Z,1738.13
2019-05-29T09:25:48.379Z,1788.75
2019-05-29T09:26:48.389Z,1693.13
2019-05-29T09:27:48.403Z,1479.38
2019-05-29T09:28:48.423Z,1389.38
2019-05-29T09:29:50.281Z,1316.25
2019-05-29T09:30:48.559Z,1260.00
2019-05-29T09:31:48.412Z,1220.63
2019-05-29T09:32:51.946Z,1203.75
2019-05-29T09:33:48.453Z,1215.00
2019-05-29T09:34:48.419Z,1276.88
2019-05-29T09:35:48.444Z,1395.00
2019-05-29T09:36:48.577Z,1558.13
2019-05-29T09:37:48.428Z,1760.63
2019-05-29T09:38:48.511Z,1873.13
2019-05-29T09:39:48.434Z,1755.00
2019-05-29T09:40:48.439Z,1456.88
2019-05-29T09:41:50.859Z,1271.25
2019-05-29T09:42:49.415Z,1125.00
2019-05-29T09:43:59.362Z,1001.25
2019-05-29T09:44:50.887Z,911.25
2019-05-29T09:45:53.334Z,838.13
2019-05-29T09:46:52.848Z,770.63
2019-05-29T09:47:49.591Z,714.38
2019-05-29T09:48:50.107Z,697.50
2019-05-29T09:49:55.783Z,720.00
2019-05-29T09:50:50.829Z,798.75
2019-05-29T09:51:49.857Z,961.88
2019-05-29T09:52:50.882Z,1153.13
2019-05-29T09:53:59.907Z,1417.50
2019-05-29T09:54:49.318Z,1726.88
2019-05-29T09:55:49.896Z,2176.88
2019-05-29T09:56:49.174Z,2778.75
2019-05-29T09:57:50.408Z,3155.63
2019-05-29T09:58:53.615Z,3071.25
2019-05-29T09:59:49.605Z,3346.88
2019-05-29T10:01:07.289Z,4050.00
2019-05-29T10:01:49.923Z,4140.00
2019-05-29T10:02:50.436Z,4348.13
2019-05-29T10:03:49.876Z,3369.38
2019-05-29T10:04:49.340Z,3369.38
2019-05-29T10:05:51.308Z,4432.50
2019-05-29T10:06:51.337Z,3774.38
2019-05-29T10:07:49.808Z,4500.00
2019-05-29T10:08:51.274Z,3993.75
2019-05-29T10:09:50.334Z,3706.88
2019-05-29T10:10:50.349Z,2913.75
2019-05-29T10:11:51.400Z,3380.63
2019-05-29T10:12:51.400Z,3127.50
2019-05-29T10:13:50.360Z,3037.50
2019-05-29T10:14:53.642Z,2632.50
2019-05-29T10:15:51.371Z,2053.13
2019-05-29T10:16:50.437Z,1721.25
2019-05-29T10:17:50.360Z,1451.25
2019-05-29T10:18:49.348Z,1220.63
2019-05-29T10:19:52.355Z,1091.25
2019-05-29T10:20:52.358Z,1018.13
2019-05-29T10:21:51.790Z,995.63
2019-05-29T10:22:49.368Z,1012.50
2019-05-29T10:23:49.134Z,1068.75
2019-05-29T10:24:49.816Z,1186.88
2019-05-29T10:25:50.356Z,1378.13
2019-05-29T10:26:49.829Z,1586.25
2019-05-29T10:27:50.832Z,1828.13
2019-05-29T10:29:51.706Z,2373.75
2019-05-29T10:30:50.174Z,2790.00
2019-05-29T10:31:51.379Z,2818.13
2019-05-29T10:32:50.125Z,2925.00
2019-05-29T10:33:52.321Z,3206.25
2019-05-29T10:34:50.839Z,3166.88
2019-05-29T10:35:53.515Z,3341.25
2019-05-29T10:36:52.905Z,3110.63
2019-05-29T10:37:50.734Z,2958.75
2019-05-29T10:38:50.597Z,3003.75
2019-05-29T10:39:49.346Z,3105.00
2019-05-29T10:41:00.456Z,2930.63
2019-05-29T10:41:51.335Z,2722.50
2019-05-29T10:42:49.112Z,2317.50
2019-05-29T10:43:53.260Z,1681.88
2019-05-29T10:44:53.246Z,1659.38
2019-05-29T10:45:51.944Z,1704.38
2019-05-29T10:46:52.028Z,2047.50
2019-05-29T10:47:49.928Z,1788.75
2019-05-29T10:48:55.934Z,2188.13
2019-05-29T10:49:49.765Z,4252.50
2019-05-29T10:50:52.173Z,4083.75
2019-05-29T10:52:05.752Z,4494.38
2019-05-29T10:52:52.303Z,4820.63
2019-05-29T10:53:52.268Z,4640.63
2019-05-29T10:54:52.442Z,4635.00
2019-05-29T10:55:52.596Z,4618.13
2019-05-29T10:56:50.700Z,2278.13
2019-05-29T10:57:50.734Z,1861.88
2019-05-29T10:58:56.165Z,1755.00
2019-05-29T10:59:50.841Z,1912.50
2019-05-29T11:00:53.249Z,3960.00
2019-05-29T11:01:49.245Z,4471.88
2019-05-29T11:02:50.153Z,4089.38
2019-05-29T11:03:49.365Z,2137.50
2019-05-29T11:04:53.247Z,2328.75
2019-05-29T11:05:49.792Z,2446.88
2019-05-29T11:06:50.274Z,1755.00
2019-05-29T11:07:49.724Z,4876.88
2019-05-29T11:08:50.223Z,4983.75
2019-05-29T11:09:56.135Z,5017.50
2019-05-29T11:10:49.945Z,4950.00
2019-05-29T11:11:53.277Z,2958.75
2019-05-29T11:12:50.691Z,1698.75
2019-05-29T11:13:50.554Z,4955.63
2019-05-29T11:14:50.727Z,4708.13
2019-05-29T11:15:50.833Z,4848.75
2019-05-29T11:16:53.413Z,4539.38
2019-05-29T11:17:49.601Z,4561.88
2019-05-29T11:18:51.228Z,4798.13
2019-05-29T11:19:49.868Z,4151.25
2019-05-29T11:20:49.454Z,1800.00
2019-05-29T11:21:51.877Z,1282.50
2019-05-29T11:22:51.658Z,1164.38
2019-05-29T11:23:51.844Z,2221.88
2019-05-29T11:24:54.439Z,4910.63
2019-05-29T11:25:52.087Z,4713.75
2019-05-29T11:26:54.588Z,4770.00
2019-05-29T11:27:50.923Z,4443.75
2019-05-29T11:28:50.404Z,4584.38
2019-05-29T11:29:55.128Z,4696.88
2019-05-29T11:30:53.284Z,4651.88
2019-05-29T11:31:53.320Z,1445.63
2019-05-29T11:32:52.702Z,1563.75
2019-05-29T11:33:52.895Z,4483.13
2019-05-29T11:34:53.773Z,4528.13
2019-05-29T11:36:03.319Z,4280.63
2019-05-29T11:36:50.363Z,4606.88
2019-05-29T11:37:50.421Z,4713.75
2019-05-29T11:38:52.835Z,4522.50
2019-05-29T11:39:50.374Z,4252.50
2019-05-29T11:41:05.376Z,4415.63
2019-05-29T11:41:50.617Z,4905.00
2019-05-29T11:42:52.653Z,5107.50
2019-05-29T11:43:50.642Z,4938.75
2019-05-29T11:44:50.933Z,4725.00
2019-05-29T11:45:51.177Z,4646.25
2019-05-29T11:46:50.317Z,4606.88
2019-05-29T11:47:54.001Z,4432.50
2019-05-29T11:48:53.072Z,4365.00
2019-05-29T11:49:49.533Z,4426.88
2019-05-29T11:50:52.120Z,4387.50
2019-05-29T11:51:51.599Z,4145.63
2019-05-29T11:52:50.329Z,4201.88
2019-05-29T11:53:51.528Z,2115.00
2019-05-29T11:54:56.132Z,5180.63
2019-05-29T11:55:52.394Z,5220.00
2019-05-29T11:56:53.531Z,5068.13
2019-05-29T11:57:51.714Z,5028.75
2019-05-29T11:58:52.898Z,4910.63
2019-05-29T11:59:51.738Z,4100.63
2019-05-29T12:01:01.265Z,5017.50
2019-05-29T12:01:52.546Z,5051.25
2019-05-29T12:02:51.273Z,2986.88
2019-05-29T12:04:13.559Z,2638.13
2019-05-29T12:04:52.990Z,5175.00
2019-05-29T12:05:51.154Z,4736.25
2019-05-29T12:06:53.198Z,1968.75
2019-05-29T12:07:51.580Z,4871.25
2019-05-29T12:08:53.641Z,4533.75
2019-05-29T12:09:51.361Z,4404.38
2019-05-29T12:10:49.826Z,5107.50
2019-05-29T12:11:51.883Z,2221.88
2019-05-29T12:12:51.322Z,2115.00
2019-05-29T12:13:51.644Z,4916.25
2019-05-29T12:15:00.366Z,4235.63
2019-05-29T12:15:51.561Z,5551.88
2019-05-29T12:16:51.728Z,1423.13
2019-05-29T12:17:49.848Z,1991.25
2019-05-29T12:18:51.497Z,1338.75
2019-05-29T12:19:51.795Z,3588.75
2019-05-29T12:20:52.360Z,4725.00
2019-05-29T12:21:52.237Z,4910.63
2019-05-29T12:23:13.230Z,4860.00
2019-05-29T12:23:52.362Z,4820.63
2019-05-29T12:24:54.496Z,4595.63
2019-05-29T12:25:59.887Z,4449.38
2019-05-29T12:26:54.467Z,4089.38
2019-05-29T12:27:55.257Z,1665.00
2019-05-29T12:28:53.459Z,1951.88
2019-05-29T12:29:50.842Z,1434.38
2019-05-29T12:30:50.417Z,1310.63
2019-05-29T12:31:52.832Z,1271.25
2019-05-29T12:32:52.640Z,1288.13
2019-05-29T12:33:52.793Z,1395.00
2019-05-29T12:34:55.709Z,1456.88
2019-05-29T12:35:50.925Z,1456.88
2019-05-29T12:36:50.860Z,4680.00
2019-05-29T12:37:51.404Z,4477.50
2019-05-29T12:38:53.520Z,4505.63
2019-05-29T12:39:53.186Z,4308.75
2019-05-29T12:40:53.321Z,3577.50
2019-05-29T12:41:53.205Z,4398.75
2019-05-29T12:42:53.411Z,4590.00
2019-05-29T12:43:50.149Z,4651.88
2019-05-29T12:44:57.614Z,4528.13
2019-05-29T12:45:51.181Z,4438.13
2019-05-29T12:46:53.475Z,4426.88
2019-05-29T12:47:53.815Z,4567.50
2019-05-29T12:48:51.857Z,4590.00
2019-05-29T12:49:53.698Z,4696.88
2019-05-29T12:50:51.855Z,4899.38
2019-05-29T12:51:51.875Z,5135.63
2019-05-29T12:52:51.907Z,4910.63
2019-05-29T12:53:51.917Z,2823.75
2019-05-29T12:54:53.855Z,1434.38
2019-05-29T12:55:58.496Z,1254.38
2019-05-29T12:56:51.514Z,1153.13
2019-05-29T12:57:51.916Z,1080.00
2019-05-29T12:58:54.063Z,1063.13
2019-05-29T12:59:55.863Z,1175.63
2019-05-29T13:00:51.954Z,4353.75
2019-05-29T13:01:51.145Z,1468.13
2019-05-29T13:02:51.883Z,4584.38
2019-05-29T13:03:51.343Z,4258.13
2019-05-29T13:05:06.946Z,4533.75
2019-05-29T13:05:51.993Z,4370.63
2019-05-29T13:06:56.228Z,1918.13
2019-05-29T13:07:50.526Z,4190.63
2019-05-29T13:08:52.474Z,4393.13
2019-05-29T13:09:51.483Z,4128.75
2019-05-29T13:10:54.229Z,4117.50
2019-05-29T13:11:52.456Z,4241.25
2019-05-29T13:12:51.915Z,4404.38
2019-05-29T13:13:52.388Z,4781.25
2019-05-29T13:14:51.839Z,4708.13
2019-05-29T13:15:51.903Z,4511.25
2019-05-29T13:16:54.649Z,4578.75
2019-05-29T13:17:55.563Z,4573.13
2019-05-29T13:18:54.837Z,4483.13
2019-05-29T13:19:57.607Z,4320.00
2019-05-29T13:20:51.408Z,4269.38
2019-05-29T13:21:51.431Z,4027.50
2019-05-29T13:22:51.572Z,4618.13
2019-05-29T13:23:52.403Z,1828.13
2019-05-29T13:25:01.236Z,1552.50
2019-05-29T13:25:51.047Z,2773.13
2019-05-29T13:26:50.939Z,2874.38
2019-05-29T13:27:53.469Z,1215.00
2019-05-29T13:28:53.392Z,995.63
2019-05-29T13:29:56.476Z,1209.38
2019-05-29T13:30:53.973Z,1170.00
2019-05-29T13:31:55.633Z,3549.38